Time;durP1;ratioP1;P1;durP2;ratioP2;P2;SDS_P1;SDS_P2;PMS_P1;PMS_P2;Temp;Humidity;BMP_temperature;BMP_pressure;BME280_temperature;BME280_humidity;BME280_pressure;Samples;Min_cycle;Max_cycle;Signal;HPM_P1;HPM_P2
2023/12/09 00:02:45;;;;;;;;;;;;;;;3.75;71.75;99980.50;4465140;32;32562;-91
2023/12/09 00:05:35;;;;;;;;;;;;;;;3.88;71.13;99976.44;4463124;31;32477;-90
2023/12/09 00:08:23;;;;;;;;;;;;;;;3.63;71.47;99971.72;4477146;31;33333;-91
2023/12/09 00:11:12;;;;;;;;;;;;;;;3.78;71.24;99976.28;4468566;32;33437;-91
2023/12/09 00:14:09;;;;;;;;;;;;;;;3.84;71.17;99981.53;4476968;32;32691;-94
2023/12/09 00:16:58;;;;;;;;;;;;;;;3.74;71.42;99981.31;4487352;31;34706;-92
2023/12/09 00:20:29;;;;;;;;;;;;;;;3.85;71.12;99983.25;4486115;31;34588;-92
2023/12/09 00:23:40;;;;;;;;;;;;;;;3.89;71.26;99978.16;4471890;31;33180;-92
2023/12/09 00:26:30;;;;;;;;;;;;;;;3.92;70.78;99979.09;4487438;31;33848;-92
2023/12/09 00:29:17;;;;;;;;;;;;;;;3.90;70.86;99982.47;4484853;31;34273;-91
2023/12/09 00:32:26;;;;;;;;;;;;;;;3.75;71.43;99977.94;4476634;31;34564;-92
2023/12/09 00:35:57;;;;;;;;;;;;;;;3.98;70.55;99983.47;4492892;31;32631;-93
2023/12/09 00:38:45;;;;;;;;;;;;;;;3.62;71.83;99976.81;4483921;31;32935;-92
2023/12/09 00:41:34;;;;;;;;;;;;;;;3.76;71.42;99984.78;4471139;32;33173;-92
2023/12/09 00:45:03;;;;;;;;;;;;;;;3.77;71.40;99983.94;4479538;31;33680;-92
2023/12/09 00:47:52;;;;;;;;;;;;;;;3.76;71.25;99982.22;4477586;31;34319;-95
2023/12/09 00:51:22;;;;;;;;;;;;;;;3.84;70.91;99975.50;4462758;31;33067;-92
2023/12/09 00:54:11;;;;;;;;;;;;;;;3.77;71.21;99979.69;4480814;31;34764;-92
2023/12/09 00:57:00;;;;;;;;;;;;;;;3.92;70.64;99984.22;4473431;31;32909;-92
2023/12/09 00:59:49;;;;;;;;;;;;;;;3.84;71.15;99976.41;4463952;31;32329;-92
2023/12/09 01:02:38;;;;;;;;;;;;;;;3.85;70.84;99990.09;4467691;31;32949;-94
2023/12/09 01:05:50;;;;;;;;;;;;;;;3.82;70.97;99983.19;4476218;31;33848;-93
2023/12/09 01:09:19;;;;;;;;;;;;;;;3.72;71.23;99981.31;4470191;31;33881;-92
2023/12/09 01:12:08;;;;;;;;;;;;;;;3.78;71.13;99985.69;4461272;31;34178;-93
2023/12/09 01:15:37;;;;;;;;;;;;;;;3.74;71.16;99978.75;4466992;31;32983;-93
2023/12/09 01:18:26;;;;;;;;;;;;;;;3.82;70.76;99983.19;4486975;31;34541;-93
2023/12/09 01:21:15;;;;;;;;;;;;;;;3.72;71.29;99976.16;4490156;31;33614;-93
2023/12/09 01:24:27;;;;;;;;;;;;;;;3.80;71.22;99978.87;4489194;31;33087;-93
2023/12/09 01:27:35;;;;;;;;;;;;;;;3.56;71.61;99969.87;4475210;31;32043;-92
2023/12/09 01:30:44;;;;;;;;;;;;;;;3.60;72.25;99970.78;4472193;31;33302;-93
2023/12/09 01:33:52;;;;;;;;;;;;;;;3.43;72.51;99973.00;4471471;31;33212;-92
2023/12/09 01:37:41;;;;;;;;;;;;;;;3.57;72.08;99968.16;4469202;32;35203;-96
2023/12/09 01:40:52;;;;;;;;;;;;;;;3.79;71.29;99970.31;4476291;31;34083;-93
2023/12/09 01:43:42;;;;;;;;;;;;;;;3.72;71.91;99963.34;4483185;31;35071;-93
2023/12/09 01:46:50;;;;;;;;;;;;;;;3.65;72.48;99969.19;4476524;32;35028;-94
2023/12/09 01:49:19;;;;;;;;;;;;;;;3.73;72.01;99970.19;4482300;31;33298;-92
2023/12/09 01:52:08;;;;;;;;;;;;;;;3.63;72.05;99968.28;4466450;32;35136;-93
2023/12/09 01:55:58;;;;;;;;;;;;;;;3.74;71.59;99971.03;4471917;32;33671;-93
2023/12/09 01:58:47;;;;;;;;;;;;;;;3.84;71.59;99978.06;4471658;31;35493;-92
2023/12/09 02:01:56;;;;;;;;;;;;;;;3.61;72.57;99973.38;4471192;32;33493;-92
2023/12/09 02:05:25;;;;;;;;;;;;;;;3.52;72.51;99968.06;4473893;32;31747;-92
2023/12/09 02:08:14;;;;;;;;;;;;;;;3.55;72.91;99967.25;4469332;31;32824;-93
2023/12/09 02:11:46;;;;;;;;;;;;;;;3.63;72.04;99974.28;4466957;31;33832;-93
2023/12/09 02:15:15;;;;;;;;;;;;;;;3.70;71.71;99976.97;4469649;31;34381;-90
2023/12/09 02:18:24;;;;;;;;;;;;;;;3.62;72.34;99976.81;4479211;31;33424;-92
2023/12/09 02:21:13;;;;;;;;;;;;;;;3.46;72.84;99967.09;4481112;31;34276;-93
2023/12/09 02:24:24;;;;;;;;;;;;;;;3.56;72.11;99969.87;4484141;31;33411;-93
2023/12/09 02:27:52;;;;;;;;;;;;;;;3.32;73.33;99969.38;4471386;31;34635;-93
2023/12/09 02:31:02;;;;;;;;;;;;;;;3.61;72.31;99967.38;4481761;31;33699;-90
2023/12/09 02:33:32;;;;;;;;;;;;;;;3.58;72.19;99964.78;4463137;32;32591;-91
2023/12/09 02:36:02;;;;;;;;;;;;;;;3.75;71.85;99965.97;4473092;32;33620;-91
2023/12/09 02:38:31;;;;;;;;;;;;;;;3.72;71.72;99965.91;4483248;31;33875;-91
2023/12/09 02:41:23;;;;;;;;;;;;;;;3.34;72.84;99960.88;4472849;31;32497;-92
2023/12/09 02:44:12;;;;;;;;;;;;;;;3.53;72.23;99953.56;4465754;32;33165;-92
2023/12/09 02:47:22;;;;;;;;;;;;;;;3.42;73.01;99954.19;4464197;31;32777;-91
2023/12/09 02:50:11;;;;;;;;;;;;;;;3.48;72.84;99963.72;4478123;31;34029;-93
2023/12/09 02:53:01;;;;;;;;;;;;;;;3.48;72.80;99966.28;4466152;32;32445;-92
2023/12/09 02:55:31;;;;;;;;;;;;;;;3.67;72.17;99967.50;4481103;31;34411;-92
2023/12/09 02:59:02;;;;;;;;;;;;;;;3.64;72.81;99972.56;4467313;31;33810;-93
2023/12/09 03:01:51;;;;;;;;;;;;;;;3.49;72.94;99968.00;4481078;31;33693;-93
2023/12/09 03:05:00;;;;;;;;;;;;;;;3.66;72.57;99976.03;4462573;31;32988;-93
2023/12/09 03:07:29;;;;;;;;;;;;;;;3.70;72.24;99972.72;4483677;31;33690;-93
2023/12/09 03:09:58;;;;;;;;;;;;;;;3.70;72.29;99972.72;4466228;31;33802;-92
2023/12/09 03:12:47;;;;;;;;;;;;;;;3.70;72.49;99974.41;4469459;31;32589;-93
2023/12/09 03:15:57;;;;;;;;;;;;;;;3.81;71.69;99975.47;4487293;31;33401;-93
2023/12/09 03:18:26;;;;;;;;;;;;;;;3.63;72.28;99981.13;4485017;31;34592;-94
2023/12/09 03:22:15;;;;;;;;;;;;;;;3.63;71.74;99983.69;4464911;32;34376;-92
2023/12/09 03:25:04;;;;;;;;;;;;;;;3.72;71.90;99985.53;4463182;31;33542;-93
2023/12/09 03:28:13;;;;;;;;;;;;;;;3.80;71.60;99991.72;4480198;31;32935;-93
2023/12/09 03:31:24;;;;;;;;;;;;;;;3.71;72.11;99986.41;4479429;31;35554;-93
2023/12/09 03:34:32;;;;;;;;;;;;;;;3.46;72.43;99987.63;4464346;31;34262;-93
2023/12/09 03:37:21;;;;;;;;;;;;;;;3.69;72.14;99980.38;4469476;31;33318;-92
2023/12/09 03:40:30;;;;;;;;;;;;;;;3.72;72.04;99990.69;4479547;31;31801;-94
2023/12/09 03:43:19;;;;;;;;;;;;;;;3.52;72.68;99988.59;4480282;31;31684;-94
2023/12/09 03:46:50;;;;;;;;;;;;;;;3.67;72.46;99987.16;4473390;32;32096;-93
2023/12/09 03:50:38;;;;;;;;;;;;;;;3.82;71.61;99993.47;4466857;31;32805;-93
2023/12/09 03:53:48;;;;;;;;;;;;;;;3.69;71.99;99999.19;4489284;31;32334;-93
2023/12/09 03:56:37;;;;;;;;;;;;;;;3.79;71.85;100001.12;4468933;31;32236;-95
2023/12/09 04:00:06;;;;;;;;;;;;;;;3.90;71.22;99998.72;4481819;31;34095;-92
2023/12/09 04:03:18;;;;;;;;;;;;;;;3.57;72.33;99991.25;4479849;31;34321;-93
2023/12/09 04:06:27;;;;;;;;;;;;;;;3.62;72.45;99999.91;4485434;31;33034;-93
2023/12/09 04:09:16;;;;;;;;;;;;;;;3.64;72.40;100004.22;4487631;31;33111;-94
2023/12/09 04:12:05;;;;;;;;;;;;;;;3.66;72.31;100000.84;4471828;31;33259;-94
2023/12/09 04:14:54;;;;;;;;;;;;;;;3.37;72.78;99993.41;4487674;31;33684;-94
2023/12/09 04:17:43;;;;;;;;;;;;;;;3.59;72.56;99997.28;4485956;31;33019;-93
2023/12/09 04:21:33;;;;;;;;;;;;;;;3.59;72.37;99994.72;4466729;31;35026;-96
2023/12/09 04:24:42;;;;;;;;;;;;;;;3.57;72.21;99998.94;4474646;31;35291;-94
2023/12/09 04:27:31;;;;;;;;;;;;;;;3.38;72.63;99996.03;4497316;31;35148;-95
2023/12/09 04:30:39;;;;;;;;;;;;;;;3.47;72.64;99992.75;4468967;32;31934;-93
2023/12/09 04:33:52;;;;;;;;;;;;;;;3.55;72.82;99992.91;4491195;31;34533;-93
2023/12/09 04:36:24;;;;;;;;;;;;;;;3.51;72.51;99998.84;4477728;31;33802;-93
2023/12/09 04:39:33;;;;;;;;;;;;;;;3.64;72.34;100000.78;4468871;31;32695;-94
2023/12/09 04:43:01;;;;;;;;;;;;;;;3.74;72.13;100006.97;4476715;32;35245;-94
2023/12/09 04:46:10;;;;;;;;;;;;;;;3.61;72.52;100004.16;4463728;32;32646;-95
2023/12/09 04:48:59;;;;;;;;;;;;;;;3.46;73.06;100003.88;4485220;31;35056;-95
2023/12/09 04:52:49;;;;;;;;;;;;;;;3.48;72.74;99998.75;4477423;31;33635;-94
2023/12/09 04:56:38;;;;;;;;;;;;;;;3.29;73.57;99997.53;4470555;32;31913;-94
2023/12/09 05:00:10;;;;;;;;;;;;;;;3.62;72.68;99999.91;4469354;31;34428;-95
2023/12/09 05:03:20;;;;;;;;;;;;;;;3.75;72.23;100008.72;4467259;31;34377;-96
2023/12/09 05:06:29;;;;;;;;;;;;;;;3.70;72.07;100007.78;4470625;31;32449;-95
2023/12/09 05:09:22;;;;;;;;;;;;;;;3.72;71.77;100004.41;4483023;31;34095;-95
2023/12/09 05:12:49;;;;;;;;;;;;;;;3.71;72.12;100001.78;4480254;31;34393;-95
2023/12/09 05:16:18;;;;;;;;;;;;;;;3.81;71.82;100001.12;4479925;31;34315;-95
2023/12/09 05:19:08;;;;;;;;;;;;;;;3.75;72.33;100001.88;4487707;31;33990;-94
2023/12/09 05:22:33;;;;;;;;;;;;;;;3.50;72.83;99997.94;4495708;31;33899;-95
2023/12/09 05:25:49;;;;;;;;;;;;;;;3.25;73.76;100004.28;4466334;31;33964;-94
2023/12/09 05:29:20;;;;;;;;;;;;;;;3.57;72.83;100009.19;4469520;31;34466;-95
2023/12/09 05:32:29;;;;;;;;;;;;;;;3.90;70.95;100009.00;4471237;31;33643;-95
2023/12/09 05:35:57;;;;;;;;;;;;;;;3.57;72.40;100014.34;4463568;32;33718;-96
2023/12/09 05:39:08;;;;;;;;;;;;;;;3.81;71.79;100022.50;4469545;31;34281;-95
2023/12/09 05:41:58;;;;;;;;;;;;;;;3.90;71.41;100026.09;4479106;31;33905;-95
2023/12/09 05:45:10;;;;;;;;;;;;;;;3.95;71.33;100029.63;4463615;31;34102;-95
2023/12/09 05:48:38;;;;;;;;;;;;;;;3.79;71.91;100029.34;4476515;31;32365;-95
2023/12/09 05:51:48;;;;;;;;;;;;;;;3.70;71.91;100024.03;4470654;31;32489;-94
2023/12/09 05:54:38;;;;;;;;;;;;;;;3.78;71.62;100021.59;4473890;32;33311;-95
2023/12/09 05:57:49;;;;;;;;;;;;;;;3.82;71.63;100010.56;4473807;32;32958;-95
2023/12/09 06:00:38;;;;;;;;;;;;;;;3.59;72.34;100012.66;4490315;31;33229;-96
2023/12/09 06:03:26;;;;;;;;;;;;;;;3.54;72.80;100006.59;4479351;31;34913;-94
2023/12/09 06:06:16;;;;;;;;;;;;;;;3.54;71.93;100015.12;4476126;31;31928;-95
2023/12/09 06:09:25;;;;;;;;;;;;;;;3.53;71.85;100015.97;4479897;31;33863;-94
2023/12/09 06:11:55;;;;;;;;;;;;;;;3.67;71.89;100012.81;4481156;31;33586;-95
2023/12/09 06:14:33;;;;;;;;;;;;;;;3.66;72.20;100011.97;4485349;31;33718;-93
2023/12/09 06:17:22;;;;;;;;;;;;;;;3.46;72.43;100020.97;4473571;32;33137;-95
2023/12/09 06:20:32;;;;;;;;;;;;;;;3.52;72.59;100018.50;4467845;31;32868;-93
2023/12/09 06:23:02;;;;;;;;;;;;;;;3.47;72.47;100025.25;4492580;31;32977;-94
2023/12/09 06:26:32;;;;;;;;;;;;;;;3.59;72.31;100020.37;4480949;32;33205;-94
2023/12/09 06:29:41;;;;;;;;;;;;;;;3.73;71.90;100018.09;4491069;31;33546;-93
2023/12/09 06:32:34;;;;;;;;;;;;;;;3.70;72.12;100018.88;4469725;32;36327;-93
2023/12/09 06:35:24;;;;;;;;;;;;;;;3.85;71.53;100014.03;4468027;31;32544;-95
2023/12/09 06:38:52;;;;;;;;;;;;;;;3.78;71.56;100016.47;4472091;31;32533;-95
2023/12/09 06:41:23;;;;;;;;;;;;;;;3.84;71.71;100024.28;4492554;31;34383;-93
2023/12/09 06:44:03;;;;;;;;;;;;;;;3.93;71.20;100026.16;4478953;31;33844;-94
2023/12/09 06:46:51;;;;;;;;;;;;;;;3.89;71.49;100030.37;4464588;32;32196;-95
2023/12/09 06:50:02;;;;;;;;;;;;;;;3.48;72.76;100016.69;4466654;31;32478;-93
2023/12/09 06:53:13;;;;;;;;;;;;;;;3.63;71.94;100024.72;4469212;31;35488;-94
2023/12/09 06:57:00;;;;;;;;;;;;;;;3.77;71.66;100015.59;4471489;32;33186;-96
2023/12/09 07:00:08;;;;;;;;;;;;;;;3.66;72.31;100018.78;4483889;31;34103;-96
2023/12/09 07:02:37;;;;;;;;;;;;;;;3.76;72.00;100019.00;4475313;32;33428;-95
2023/12/09 07:06:07;;;;;;;;;;;;;;;3.92;71.80;100025.31;4475405;31;35025;-95
2023/12/09 07:37:44;;;;;;;;;;;;;;;3.81;72.88;100044.75;4571473;27;20267;-94
2023/12/09 07:40:54;;;;;;;;;;;;;;;3.79;72.58;100038.72;4430570;32;34199;-92
2023/12/09 07:43:46;;;;;;;;;;;;;;;3.86;72.61;100038.00;4431944;32;33649;-93
2023/12/09 07:46:56;;;;;;;;;;;;;;;3.94;72.33;100041.59;4429202;32;34179;-94
2023/12/09 07:49:44;;;;;;;;;;;;;;;4.04;72.34;100043.50;4421807;32;32940;-95
2023/12/09 07:52:55;;;;;;;;;;;;;;;4.01;72.37;100050.25;4420443;32;33932;-95
2023/12/09 07:56:04;;;;;;;;;;;;;;;3.89;72.74;100039.75;4430604;32;33753;-94
2023/12/09 07:58:53;;;;;;;;;;;;;;;3.95;72.34;100029.63;4420574;32;32919;-94
2023/12/09 08:01:21;;;;;;;;;;;;;;;3.89;72.45;100032.94;4425094;32;32809;-93
2023/12/09 08:04:51;;;;;;;;;;;;;;;3.79;72.30;100036.16;4428114;32;32495;-93
2023/12/09 08:07:21;;;;;;;;;;;;;;;3.70;72.81;100043.69;4423136;32;34084;-93
2023/12/09 08:11:12;;;;;;;;;;;;;;;3.67;73.11;100039.34;4425119;32;33429;-93
2023/12/09 08:14:01;;;;;;;;;;;;;;;3.60;73.19;100040.94;4434928;32;33281;-94
2023/12/09 08:16:31;;;;;;;;;;;;;;;3.62;73.51;100029.00;4445384;32;34848;-95
2023/12/09 08:19:01;;;;;;;;;;;;;;;3.70;73.05;100029.16;4426886;32;35874;-95
2023/12/09 08:21:53;;;;;;;;;;;;;;;3.86;72.77;100025.16;4440265;32;34502;-95
2023/12/09 08:25:22;;;;;;;;;;;;;;;3.94;72.47;100038.13;4422171;32;33183;-94
2023/12/09 08:28:14;;;;;;;;;;;;;;;3.82;72.54;100034.53;4439621;32;33815;-94
2023/12/09 08:31:23;;;;;;;;;;;;;;;3.96;72.08;100033.91;4416968;32;32548;-94
2023/12/09 08:34:34;;;;;;;;;;;;;;;4.05;72.00;100040.09;4422014;32;34483;-94
2023/12/09 08:37:04;;;;;;;;;;;;;;;4.18;71.21;100033.50;4443386;32;33483;-94
2023/12/09 08:40:33;;;;;;;;;;;;;;;4.12;71.39;100029.94;4416866;32;34406;-94
2023/12/09 08:43:33;;;;;;;;;;;;;;;4.29;70.07;100036.22;4431959;32;35105;-95
2023/12/09 08:46:46;;;;;;;;;;;;;;;4.32;69.85;100032.84;4424731;32;35424;-93
2023/12/09 08:49:54;;;;;;;;;;;;;;;4.24;70.56;100035.28;4427483;32;33670;-93
2023/12/09 08:53:23;;;;;;;;;;;;;;;4.14;70.56;100039.41;4382722;32;35183;-94
2023/12/09 08:56:15;;;;;;;;;;;;;;;4.13;69.54;100037.69;4394122;32;34362;-93
2023/12/09 09:00:08;;;;;;;;;;;;;;;4.19;69.83;100044.63;4391607;32;33699;-93
2023/12/09 09:02:37;;;;;;;;;;;;;;;4.14;70.03;100046.25;4382665;32;31813;-93
2023/12/09 09:05:46;;;;;;;;;;;;;;;4.26;69.74;100049.03;4383464;32;34443;-94
2023/12/09 09:08:55;;;;;;;;;;;;;;;4.28;69.44;100040.50;4379866;32;33831;-93
2023/12/09 09:12:24;;;;;;;;;;;;;;;4.40;68.94;100042.44;4419515;32;35322;-94
2023/12/09 09:15:10;;;;;;;;;;;;;;;4.35;69.37;100048.31;4423348;32;32211;-94
2023/12/09 09:18:20;;;;;;;;;;;;;;;4.44;69.43;100051.91;4426436;32;34957;-93
2023/12/09 09:20:49;;;;;;;;;;;;;;;4.06;70.34;100038.41;4435281;32;33289;-94
2023/12/09 09:24:00;;;;;;;;;;;;;;;4.32;69.58;100043.13;4432325;32;34175;-93
2023/12/09 09:27:10;;;;;;;;;;;;;;;4.05;69.71;100036.66;4431366;32;34352;-91
2023/12/09 09:29:43;;;;;;;;;;;;;;;4.33;69.12;100032.91;4427444;32;32932;-93
2023/12/09 09:32:34;;;;;;;;;;;;;;;4.25;69.61;100031.88;4419011;32;802342;-92
2023/12/09 09:35:24;;;;;;;;;;;;;;;4.13;69.83;100029.97;4426096;32;33655;-95
2023/12/09 09:38:32;;;;;;;;;;;;;;;4.01;70.00;100025.47;4424294;32;32931;-93
2023/12/09 09:41:42;;;;;;;;;;;;;;;4.52;68.68;100028.94;4422299;32;32870;-92
2023/12/09 09:45:11;;;;;;;;;;;;;;;4.50;69.14;100022.91;4429968;32;35196;-93
2023/12/09 09:48:24;;;;;;;;;;;;;;;4.64;68.58;100023.09;4420590;32;35129;-94
2023/12/09 09:51:33;;;;;;;;;;;;;;;4.73;68.51;100017.25;4440027;32;33681;-93
2023/12/09 09:54:39;;;;;;;;;;;;;;;4.74;68.75;100008.72;4436342;32;33192;-93
2023/12/09 10:20:16;;;;;;;;;;;;;;;4.62;68.86;99988.84;4866845;27;20009;-93
2023/12/09 10:23:05;;;;;;;;;;;;;;;4.63;68.61;99988.84;4381129;32;33914;-95
2023/12/09 10:26:14;;;;;;;;;;;;;;;4.87;68.50;99977.22;4373802;32;34053;-93
2023/12/09 10:29:04;;;;;;;;;;;;;;;4.87;68.18;99970.34;4371002;32;34236;-93
2023/12/09 10:31:35;;;;;;;;;;;;;;;4.71;68.50;99968.41;4372659;32;36148;-94
2023/12/09 10:34:25;;;;;;;;;;;;;;;4.96;67.71;99961.06;4381895;32;33876;-92
2023/12/09 10:37:16;;;;;;;;;;;;;;;4.69;68.47;99970.09;4377745;32;34407;-92
2023/12/09 10:39:51;;;;;;;;;;;;;;;4.79;68.46;99965.97;4379639;32;33021;-92
2023/12/09 10:42:22;;;;;;;;;;;;;;;4.89;68.21;99958.41;4423783;32;34708;-92
2023/12/09 10:44:52;;;;;;;;;;;;;;;4.86;68.40;99952.38;4413681;32;33347;-92
2023/12/09 10:47:21;;;;;;;;;;;;;;;5.02;67.99;99949.13;4417977;32;34973;-92
2023/12/09 10:50:27;;;;;;;;;;;;;;;5.08;67.30;99948.37;4398150;32;31951;-92
2023/12/09 10:53:07;;;;;;;;;;;;;;;5.07;67.23;99947.50;4408157;32;33888;-93
2023/12/09 10:55:39;;;;;;;;;;;;;;;5.15;67.13;99950.19;4408295;32;33837;-93
2023/12/09 10:58:45;;;;;;;;;;;;;;;5.13;67.53;99942.44;4393523;32;33494;-93
2023/12/09 11:01:34;;;;;;;;;;;;;;;5.24;66.59;99942.59;4408837;32;34114;-94
2023/12/09 11:04:22;;;;;;;;;;;;;;;5.14;66.75;99941.56;4406985;32;32233;-94
2023/12/09 11:07:53;;;;;;;;;;;;;;;5.01;66.93;99942.28;4399675;32;32585;-93
2023/12/09 11:10:43;;;;;;;;;;;;;;;5.28;66.32;99935.75;4409465;32;33839;-93
2023/12/09 11:13:13;;;;;;;;;;;;;;;5.07;66.98;99934.66;4414554;32;34045;-93
2023/12/09 11:16:11;;;;;;;;;;;;;;;5.31;65.87;99925.50;4410420;32;33644;-93
2023/12/09 11:18:52;;;;;;;;;;;;;;;5.37;65.91;99927.28;4410135;32;33544;-91
2023/12/09 11:21:22;;;;;;;;;;;;;;;5.41;65.66;99924.75;4395295;32;33804;-92
2023/12/09 11:23:51;;;;;;;;;;;;;;;5.52;65.40;99930.03;4409403;32;33718;-92
2023/12/09 11:26:27;;;;;;;;;;;;;;;5.41;65.99;99935.03;4415031;32;34334;-91
2023/12/09 11:29:03;;;;;;;;;;;;;;;5.23;66.57;99934.84;4417682;32;33641;-91
2023/12/09 11:31:33;;;;;;;;;;;;;;;5.40;65.66;99935.91;4410644;32;31844;-91
2023/12/09 11:34:02;;;;;;;;;;;;;;;5.35;65.89;99938.41;4412962;32;32264;-91
2023/12/09 11:36:30;;;;;;;;;;;;;;;5.44;65.59;99941.97;4406867;32;32785;-92
2023/12/09 11:38:59;;;;;;;;;;;;;;;5.33;65.31;99941.81;4400938;32;33802;-93
2023/12/09 11:41:29;;;;;;;;;;;;;;;5.30;65.79;99931.50;4395671;32;34299;-92
2023/12/09 11:43:57;;;;;;;;;;;;;;;5.08;66.27;99938.94;4408536;32;32886;-92
2023/12/09 11:46:26;;;;;;;;;;;;;;;5.21;65.63;99927.09;4411477;32;34837;-92
2023/12/09 11:48:54;;;;;;;;;;;;;;;5.31;65.39;99923.78;4412283;32;33464;-91
2023/12/09 11:51:25;;;;;;;;;;;;;;;5.31;65.62;99920.34;4397563;32;33359;-91
2023/12/09 11:53:58;;;;;;;;;;;;;;;5.28;65.86;99915.19;4392893;32;31623;-92
2023/12/09 11:56:26;;;;;;;;;;;;;;;5.15;65.77;99916.75;4408296;32;33665;-91
2023/12/09 11:58:56;;;;;;;;;;;;;;;5.26;65.46;99911.72;4408228;32;33740;-91
2023/12/09 12:01:25;;;;;;;;;;;;;;;5.06;66.09;99916.63;4396438;32;34198;-92
2023/12/09 12:03:55;;;;;;;;;;;;;;;5.09;65.91;99914.94;4394056;32;32129;-91
2023/12/09 12:06:24;;;;;;;;;;;;;;;5.09;66.37;99909.78;4406811;32;34045;-92
2023/12/09 12:08:53;;;;;;;;;;;;;;;5.09;66.18;99911.50;4415597;32;34142;-92
2023/12/09 12:11:22;;;;;;;;;;;;;;;5.11;66.47;99912.41;4406987;32;32816;-92
2023/12/09 12:13:50;;;;;;;;;;;;;;;5.25;65.73;99905.72;4414307;32;32832;-92
2023/12/09 12:16:20;;;;;;;;;;;;;;;5.18;66.13;99905.62;4399766;32;33511;-92
2023/12/09 12:18:49;;;;;;;;;;;;;;;5.25;65.97;99912.56;4401253;32;32675;-93
2023/12/09 12:21:18;;;;;;;;;;;;;;;5.06;66.25;99908.91;4415485;32;33514;-92
2023/12/09 12:23:51;;;;;;;;;;;;;;;5.07;66.42;99902.91;4421155;32;33805;-92
2023/12/09 12:26:21;;;;;;;;;;;;;;;5.03;66.87;99903.75;4409916;32;33313;-92
2023/12/09 12:28:51;;;;;;;;;;;;;;;5.11;66.66;99902.97;4415600;32;35194;-94
2023/12/09 12:31:22;;;;;;;;;;;;;;;5.03;66.64;99894.31;4415612;32;33127;-92
2023/12/09 12:33:50;;;;;;;;;;;;;;;5.16;66.61;99899.59;4421142;32;33095;-96
2023/12/09 12:36:19;;;;;;;;;;;;;;;5.10;66.52;99901.25;4415636;32;33526;-93
2023/12/09 12:38:49;;;;;;;;;;;;;;;5.06;66.35;99894.34;4401349;32;32487;-93
2023/12/09 12:41:19;;;;;;;;;;;;;;;5.02;66.05;99897.72;4415145;32;33647;-93
2023/12/09 12:43:48;;;;;;;;;;;;;;;5.05;66.13;99902.03;4415436;32;33038;-93
2023/12/09 12:46:18;;;;;;;;;;;;;;;5.09;66.36;99891.81;4394301;32;33481;-93
2023/12/09 12:48:48;;;;;;;;;;;;;;;5.09;66.53;99889.22;4414692;32;34777;-94
2023/12/09 12:51:17;;;;;;;;;;;;;;;5.25;66.08;99890.28;4398893;32;33245;-92
2023/12/09 12:53:46;;;;;;;;;;;;;;;5.12;66.86;99884.16;4399377;32;33025;-94
2023/12/09 12:56:15;;;;;;;;;;;;;;;5.17;66.71;99875.59;4405087;32;33714;-91
2023/12/09 12:58:44;;;;;;;;;;;;;;;5.29;66.13;99884.34;4385344;32;33293;-94
2023/12/09 13:01:12;;;;;;;;;;;;;;;5.18;66.47;99874.78;4399375;32;34271;-91
2023/12/09 13:03:41;;;;;;;;;;;;;;;4.92;67.41;99870.16;4399558;32;33862;-91
2023/12/09 13:06:11;;;;;;;;;;;;;;;5.19;66.54;99871.34;4400683;32;33559;-91
2023/12/09 13:08:40;;;;;;;;;;;;;;;5.15;66.76;99875.59;4419363;32;33991;-91
2023/12/09 13:11:09;;;;;;;;;;;;;;;5.14;66.95;99876.44;4413128;32;33919;-92
2023/12/09 13:13:37;;;;;;;;;;;;;;;5.06;67.31;99876.34;4414974;32;32977;-92
2023/12/09 13:16:07;;;;;;;;;;;;;;;5.17;66.56;99870.44;4414771;32;35042;-92
2023/12/09 13:18:36;;;;;;;;;;;;;;;5.02;66.76;99876.28;4406325;32;33120;-91
2023/12/09 13:21:06;;;;;;;;;;;;;;;4.84;67.29;99870.06;4400519;32;32349;-93
2023/12/09 13:23:39;;;;;;;;;;;;;;;4.99;66.42;99882.25;4415464;32;34153;-94
2023/12/09 13:26:08;;;;;;;;;;;;;;;5.04;66.41;99872.03;4414768;32;34765;-93
2023/12/09 13:28:37;;;;;;;;;;;;;;;4.98;66.62;99875.41;4420704;32;32938;-93
2023/12/09 13:31:06;;;;;;;;;;;;;;;4.86;67.02;99877.81;4404778;32;33523;-92
2023/12/09 13:33:34;;;;;;;;;;;;;;;4.78;67.34;99876.84;4415008;32;33239;-92
2023/12/09 13:36:03;;;;;;;;;;;;;;;4.74;67.97;99875.09;4414804;32;34077;-92
2023/12/09 13:38:32;;;;;;;;;;;;;;;4.84;67.29;99872.66;4414984;32;34229;-92
2023/12/09 13:41:03;;;;;;;;;;;;;;;4.49;68.55;99879.84;4403359;32;33430;-92
2023/12/09 13:43:31;;;;;;;;;;;;;;;4.76;67.47;99875.94;4399773;32;34035;-93
2023/12/09 13:46:00;;;;;;;;;;;;;;;4.62;67.61;99876.63;4402178;32;33645;-92
2023/12/09 13:48:29;;;;;;;;;;;;;;;4.52;68.01;99874.78;4399487;32;34964;-91
2023/12/09 13:50:57;;;;;;;;;;;;;;;4.50;68.50;99881.59;4405268;32;33634;-92
2023/12/09 13:53:26;;;;;;;;;;;;;;;4.54;68.36;99878.22;4399505;32;33253;-92
2023/12/09 13:55:55;;;;;;;;;;;;;;;4.44;68.45;99876.38;4387355;32;33168;-92
2023/12/09 13:58:25;;;;;;;;;;;;;;;4.39;68.37;99873.72;4414490;32;33229;-92
2023/12/09 14:00:53;;;;;;;;;;;;;;;4.43;68.36;99865.22;4401260;32;32349;-92
2023/12/09 14:03:22;;;;;;;;;;;;;;;4.38;68.45;99866.88;4422366;32;34268;-92
2023/12/09 14:05:51;;;;;;;;;;;;;;;4.14;69.49;99875.06;4413100;32;33720;-93
2023/12/09 14:08:19;;;;;;;;;;;;;;;4.33;68.81;99860.81;4415622;32;33983;-93
2023/12/09 14:10:48;;;;;;;;;;;;;;;4.23;69.24;99857.25;4415417;32;33884;-92
2023/12/09 14:13:18;;;;;;;;;;;;;;;4.40;68.25;99870.34;4407538;32;31939;-92
2023/12/09 14:15:47;;;;;;;;;;;;;;;4.24;69.01;99861.53;4416441;32;33953;-92
2023/12/09 14:18:16;;;;;;;;;;;;;;;4.19;69.51;99852.03;4408645;32;33245;-92
2023/12/09 14:20:45;;;;;;;;;;;;;;;4.11;70.07;99851.94;4409573;32;34761;-91
2023/12/09 14:23:14;;;;;;;;;;;;;;;4.24;69.24;99858.97;4407190;32;31662;-93
2023/12/09 14:25:43;;;;;;;;;;;;;;;4.14;69.38;99857.09;4418850;32;33961;-93
2023/12/09 14:28:11;;;;;;;;;;;;;;;3.84;70.49;99857.47;4414958;32;32547;-93
2023/12/09 14:30:40;;;;;;;;;;;;;;;3.94;70.28;99855.91;4416187;32;33719;-92
2023/12/09 14:33:10;;;;;;;;;;;;;;;3.83;70.40;99854.03;4415231;32;32989;-91
2023/12/09 14:35:40;;;;;;;;;;;;;;;3.87;70.21;99847.25;4420055;32;33434;-92
2023/12/09 14:38:09;;;;;;;;;;;;;;;3.81;70.46;99842.00;4401998;32;32591;-92
2023/12/09 14:40:38;;;;;;;;;;;;;;;3.78;70.17;99840.25;4416342;32;33774;-93
2023/12/09 14:43:07;;;;;;;;;;;;;;;3.81;70.20;99844.59;4414502;32;33034;-91
2023/12/09 14:45:39;;;;;;;;;;;;;;;3.87;70.25;99843.81;4420227;32;33642;-90
2023/12/09 14:48:08;;;;;;;;;;;;;;;3.78;70.51;99839.41;4415269;32;34572;-91
2023/12/09 14:50:38;;;;;;;;;;;;;;;3.82;70.61;99838.63;4401383;32;32095;-90
2023/12/09 14:53:07;;;;;;;;;;;;;;;3.73;70.34;99830.78;4413961;32;33051;-91
2023/12/09 14:55:35;;;;;;;;;;;;;;;3.59;70.94;99825.41;4400039;32;34053;-90
2023/12/09 14:58:04;;;;;;;;;;;;;;;3.55;71.21;99826.19;4406157;32;34338;-91
2023/12/09 15:00:33;;;;;;;;;;;;;;;3.42;71.79;99815.69;4387081;32;33355;-92
2023/12/09 15:03:01;;;;;;;;;;;;;;;3.54;70.79;99812.50;4386671;32;32092;-91
2023/12/09 15:05:30;;;;;;;;;;;;;;;3.49;70.96;99823.53;4400719;32;34462;-92
2023/12/09 15:08:02;;;;;;;;;;;;;;;3.49;71.43;99814.12;4416327;32;33315;-92
2023/12/09 15:10:31;;;;;;;;;;;;;;;3.52;71.26;99818.44;4416248;32;34532;-92
2023/12/09 15:13:00;;;;;;;;;;;;;;;3.47;71.34;99826.06;4415278;32;33361;-93
2023/12/09 15:15:30;;;;;;;;;;;;;;;3.15;72.67;99826.34;4386513;32;33992;-93
2023/12/09 15:17:59;;;;;;;;;;;;;;;3.34;72.09;99824.13;4389575;32;33695;-94
2023/12/09 15:20:28;;;;;;;;;;;;;;;3.37;71.79;99822.47;4406077;32;34467;-93
2023/12/09 15:22:58;;;;;;;;;;;;;;;3.40;71.56;99812.25;4400598;32;32915;-93
2023/12/09 15:25:28;;;;;;;;;;;;;;;3.51;71.01;99806.47;4400592;32;34496;-93
2023/12/09 15:27:57;;;;;;;;;;;;;;;2.98;72.72;99796.97;4400466;32;34689;-92
2023/12/09 15:30:26;;;;;;;;;;;;;;;3.06;72.58;99799.66;4406270;32;33061;-92
2023/12/09 15:32:54;;;;;;;;;;;;;;;3.30;71.88;99800.09;4386674;32;32071;-92
2023/12/09 15:35:25;;;;;;;;;;;;;;;3.33;71.80;99800.16;4400442;32;33638;-92
2023/12/09 15:37:54;;;;;;;;;;;;;;;3.12;72.30;99787.84;4400493;32;33808;-92
2023/12/09 15:40:22;;;;;;;;;;;;;;;3.16;72.47;99792.16;4405973;32;34090;-93
2023/12/09 15:42:53;;;;;;;;;;;;;;;3.47;70.95;99791.84;4401083;32;34350;-92
2023/12/09 15:45:21;;;;;;;;;;;;;;;3.09;71.91;99799.72;4386489;32;32830;-92
2023/12/09 15:47:50;;;;;;;;;;;;;;;3.18;71.92;99787.06;4407976;32;34461;-92